Time;durP1;ratioP1;P1;durP2;ratioP2;P2;SDS_P1;SDS_P2;PMS_P1;PMS_P2;Temp;Humidity;BMP_temperature;BMP_pressure;BME280_temperature;BME280_humidity;BME280_pressure;Samples;Min_cycle;Max_cycle;Signal;HPM_P1;HPM_P2
2021/12/17 00:01:47;;;;;;;9.00;5.10;;;;;;;6.54;93.17;103130.92;102821;1332;74026;-81
2021/12/17 00:06:47;;;;;;;;;;;;;;;6.58;93.11;103133.35;103600;1329;59215;-83
2021/12/17 00:09:13;;;;;;;12.20;5.40;;;;;;;6.57;93.10;103133.90;102746;1329;75616;-81
2021/12/17 00:11:40;;;;;;;15.00;6.00;;;;;;;6.58;93.28;103136.51;102802;1329;73871;-80
2021/12/17 00:14:07;;;;;;;14.40;5.80;;;;;;;6.60;93.28;103133.60;102997;1329;75414;-81
2021/12/17 00:48:25;;;;;;;15.00;5.80;;;;;;;6.68;94.20;103132.60;102907;1332;74251;-80
2021/12/17 00:56:00;;;;;;;13.50;6.40;;;;;;;6.69;94.06;103138.31;103129;1329;58527;-82
2021/12/17 00:58:27;;;;;;;10.90;5.50;;;;;;;6.69;94.13;103142.35;102955;1329;61763;-82
2021/12/17 01:00:54;;;;;;;14.30;7.00;;;;;;;6.68;93.96;103143.29;102841;1329;77307;-82
2021/12/17 01:06:16;;;;;;;15.00;5.90;;;;;;;6.71;94.02;103128.52;103007;1329;73022;-82
2021/12/17 01:08:43;;;;;;;17.60;7.00;;;;;;;6.73;93.98;103126.47;102987;1345;62553;-82
2021/12/17 01:11:10;;;;;;;17.00;6.90;;;;;;;6.74;94.18;103133.98;103044;1332;59675;-81
2021/12/17 01:13:40;;;;;;;14.40;6.10;;;;;;;6.76;94.34;103137.39;102760;1332;74420;-82
2021/12/17 01:42:06;;;;;;;20.40;7.90;;;;;;;6.87;95.43;103164.34;103518;1329;66891;-81
2021/12/17 01:44:38;;;;;;;24.60;10.30;;;;;;;6.87;95.46;103166.08;102786;1329;72963;-82
2021/12/17 02:05:39;;;;;;;20.50;8.90;;;;;;;6.92;94.19;103156.83;102969;1329;72856;-80
2021/12/17 02:08:10;;;;;;;21.50;9.30;;;;;;;6.96;94.25;103156.83;103004;1329;71723;-80
2021/12/17 02:31:28;;;;;;;17.70;8.30;;;;;;;7.07;93.81;103149.63;102590;1329;72556;-81
2021/12/17 02:33:59;;;;;;;18.30;8.80;;;;;;;7.06;93.59;103143.89;102927;1331;71614;-81
2021/12/17 02:46:53;;;;;;;;;;;;;;;;;;;;;
2021/12/17 02:54:07;;;;;;;14.40;7.30;;;;;;;7.02;91.86;103110.54;102933;1332;59430;-80
2021/12/17 02:56:36;;;;;;;19.50;9.60;;;;;;;7.03;91.98;103117.86;102834;1331;75824;-80
2021/12/17 02:59:06;;;;;;;18.80;9.20;;;;;;;7.03;91.77;103120.83;103055;1342;71551;-80
2021/12/17 03:01:33;;;;;;;20.80;8.30;;;;;;;7.03;91.74;103123.80;103006;1346;74279;-81
2021/12/17 03:04:01;;;;;;;16.90;8.90;;;;;;;7.04;92.01;103124.65;103081;1345;62110;-81
2021/12/17 03:09:22;;;;;;;17.00;8.00;;;;;;;7.06;92.23;103127.35;102597;1333;74340;-81
2021/12/17 03:17:06;;;;;;;19.30;7.90;;;;;;;7.05;92.06;103123.55;102933;1330;63399;-80
2021/12/17 03:24:34;;;;;;;15.00;6.70;;;;;;;7.06;92.15;103113.25;102886;1331;71560;-80
2021/12/17 03:27:26;;;;;;;16.00;8.50;;;;;;;7.11;92.39;103113.17;101273;1342;600171;-80
2021/12/17 03:30:11;;;;;;;;;;;;;;;;;;;;;
2021/12/17 03:32:36;;;;;;;12.00;5.50;;;;;;;7.08;92.29;103103.29;102135;1316;60694;-83
2021/12/17 03:37:33;;;;;;;17.70;7.70;;;;;;;7.09;92.85;103116.24;103253;1310;72700;-84
2021/12/17 03:39:59;;;;;;;13.80;6.80;;;;;;;7.10;93.53;103120.77;101015;1316;3207473;-81
2021/12/17 03:42:26;;;;;;;13.90;7.10;;;;;;;7.09;93.85;103122.23;102935;1316;61957;-82
2021/12/17 03:44:52;;;;;;;13.60;7.10;;;;;;;7.10;94.29;103121.27;103560;1310;59174;-82
2021/12/17 03:47:31;;;;;;;;;;;;;;;;;;;;;
2021/12/17 03:49:52;;;;;;;13.60;6.70;;;;;;;7.12;94.40;103122.40;103754;1301;66735;-81
2021/12/17 03:52:21;;;;;;;13.40;6.60;;;;;;;7.12;94.47;103117.10;103373;1308;73964;-82
2021/12/17 03:55:07;;;;;;;12.70;6.30;;;;;;;7.15;94.86;103112.38;101814;1342;600501;-79
2021/12/17 04:02:27;;;;;;;13.10;6.10;;;;;;;7.10;95.54;103120.06;104083;1317;57633;-81
2021/12/17 04:04:54;;;;;;;13.80;6.70;;;;;;;7.10;96.05;103117.63;104329;1316;71595;-82
2021/12/17 04:07:24;;;;;;;13.80;6.10;;;;;;;7.08;96.28;103119.67;103921;1315;72714;-82
2021/12/17 04:09:50;;;;;;;17.90;8.00;;;;;;;7.07;96.71;103117.46;101861;1313;3207077;-81
2021/12/17 04:14:51;;;;;;;16.10;7.20;;;;;;;7.09;96.86;103121.20;103535;1317;72417;-81
2021/12/17 04:17:24;;;;;;;17.30;7.30;;;;;;;7.11;97.07;103121.96;103851;1320;73022;-81
2021/12/17 04:19:51;;;;;;;16.40;6.10;;;;;;;7.11;97.25;103120.00;103534;1318;73735;-81
2021/12/17 04:22:19;;;;;;;14.70;6.60;;;;;;;7.11;97.28;103114.74;103633;1318;65040;-82
2021/12/17 04:24:45;;;;;;;14.80;6.60;;;;;;;7.09;97.49;103107.80;103924;1324;61582;-81
2021/12/17 04:27:12;;;;;;;15.70;7.00;;;;;;;7.11;97.72;103106.14;103722;1320;74257;-82
2021/12/17 04:32:12;;;;;;;15.50;6.40;;;;;;;7.10;98.02;103100.20;103597;1321;72988;-80
2021/12/17 04:37:09;;;;;;;17.30;7.50;;;;;;;7.09;98.26;103108.87;103558;1318;60685;-80
2021/12/17 04:39:36;;;;;;;14.50;6.10;;;;;;;7.09;98.62;103109.41;103295;1320;74431;-81
2021/12/17 04:57:55;;;;;;;16.20;7.30;;;;;;;7.09;99.55;103117.47;103592;1334;72022;-81
2021/12/17 05:00:25;;;;;;;20.30;8.40;;;;;;;7.10;99.61;103121.29;103552;1338;62480;-81
2021/12/17 05:27:09;;;;;;;15.50;6.50;;;;;;;7.04;100.00;103124.66;103265;1324;63280;-82
2021/12/17 05:32:05;;;;;;;17.60;7.80;;;;;;;7.01;100.00;103134.17;103324;1324;73575;-82
2021/12/17 05:34:32;;;;;;;18.40;7.60;;;;;;;7.02;100.00;103141.30;103173;1320;73279;-81
2021/12/17 05:37:02;;;;;;;16.90;7.20;;;;;;;7.03;100.00;103127.91;103520;1323;73126;-80
2021/12/17 05:39:30;;;;;;;18.30;6.30;;;;;;;7.01;100.00;103116.76;103340;1324;61004;-82
2021/12/17 05:41:57;;;;;;;15.10;6.50;;;;;;;6.99;100.00;103117.77;103408;1324;64893;-82
2021/12/17 05:44:24;;;;;;;19.90;7.40;;;;;;;7.00;100.00;103112.80;103313;1324;74339;-82
2021/12/17 05:52:00;;;;;;;18.20;6.20;;;;;;;6.99;100.00;103130.23;103591;1315;63203;-82
2021/12/17 05:54:27;;;;;;;14.20;6.80;;;;;;;6.98;100.00;103128.01;103952;1315;60476;-83
2021/12/17 05:56:54;;;;;;;21.70;7.20;;;;;;;6.98;100.00;103131.40;104096;1315;75348;-82
2021/12/17 05:59:20;;;;;;;14.50;5.90;;;;;;;6.98;100.00;103134.73;104086;1314;72531;-81
2021/12/17 06:01:47;;;;;;;20.10;7.40;;;;;;;6.97;100.00;103131.59;104138;1315;73017;-79
2021/12/17 06:04:14;;;;;;;19.60;6.70;;;;;;;6.96;100.00;103126.39;103871;1307;62667;-80
2021/12/17 06:06:46;;;;;;;22.00;6.80;;;;;;;6.93;100.00;103121.59;104052;1314;62696;-79
2021/12/17 06:09:13;;;;;;;14.20;5.70;;;;;;;6.92;100.00;103118.85;104048;1315;73732;-80
2021/12/17 06:11:42;;;;;;;15.40;5.70;;;;;;;6.91;100.00;103124.73;104355;1315;74108;-80
2021/12/17 06:14:22;;;;;;;16.30;6.00;;;;;;;6.90;100.00;103125.14;104396;1328;73002;-81
2021/12/17 06:16:49;;;;;;;16.10;5.80;;;;;;;6.88;100.00;103127.15;103631;1325;63297;-81
2021/12/17 06:19:19;;;;;;;15.80;5.60;;;;;;;6.87;100.00;103125.98;104313;1326;61879;-81
2021/12/17 06:21:49;;;;;;;11.50;4.70;;;;;;;6.87;100.00;103122.82;104333;1327;74571;-80
2021/12/17 06:24:15;;;;;;;13.90;5.60;;;;;;;6.88;100.00;103117.14;104456;1327;72574;-80
2021/12/17 06:26:42;;;;;;;14.00;4.00;;;;;;;6.87;100.00;103125.82;104334;1322;73349;-80
2021/12/17 06:29:09;;;;;;;14.10;5.20;;;;;;;6.87;100.00;103122.86;104021;1330;62039;-81
2021/12/17 06:31:36;;;;;;;26.30;5.90;;;;;;;6.88;100.00;103131.94;104212;1327;59408;-82
2021/12/17 06:34:02;;;;;;;19.10;6.60;;;;;;;6.88;100.00;103131.23;104482;1314;133306;-81
2021/12/17 06:36:29;;;;;;;19.40;5.80;;;;;;;6.87;100.00;103137.80;104064;1334;71411;-79
2021/12/17 06:38:56;;;;;;;20.60;5.50;;;;;;;6.88;100.00;103140.91;104027;1333;72950;-80
2021/12/17 06:41:23;;;;;;;18.70;5.30;;;;;;;6.89;100.00;103146.44;103975;1330;62260;-81
2021/12/17 06:43:50;;;;;;;10.60;4.10;;;;;;;6.90;100.00;103141.45;104021;1330;60688;-79
2021/12/17 06:48:43;;;;;;;15.70;5.50;;;;;;;6.91;100.00;103138.11;103575;1334;57538;-83
2021/12/17 07:08:46;;;;;;;10.40;3.90;;;;;;;6.90;100.00;103146.94;103992;1330;63105;-75
2021/12/17 07:10:42;;;;;;;7.50;2.50;;;;;;;6.91;100.00;103144.94;104018;1330;60749;-77
2021/12/17 07:31:03;;;;;;;12.10;3.70;;;;;;;6.84;100.00;103131.67;104047;1330;73250;-76
2021/12/17 07:40:11;;;;;;;7.00;2.80;;;;;;;6.78;100.00;103145.75;104002;1330;74300;-76
2021/12/17 07:42:37;;;;;;;7.40;2.90;;;;;;;6.77;100.00;103144.73;103705;1336;72592;-76
2021/12/17 07:45:05;;;;;;;11.30;3.40;;;;;;;6.76;100.00;103149.34;103950;1331;74007;-75
2021/12/17 07:47:31;;;;;;;7.20;3.30;;;;;;;6.77;100.00;103145.45;103353;1336;62203;-76
2021/12/17 07:49:58;;;;;;;6.90;2.80;;;;;;;6.78;100.00;103132.90;103920;1333;60923;-75
2021/12/17 07:52:25;;;;;;;10.10;3.50;;;;;;;6.77;100.00;103117.82;103991;1333;73170;-76
2021/12/17 07:54:52;;;;;;;10.20;3.80;;;;;;;6.75;100.00;103112.98;103907;1330;57710;-76
2021/12/17 07:57:18;;;;;;;7.30;3.30;;;;;;;6.76;100.00;103117.33;103699;1331;73236;-76
2021/12/17 07:59:45;;;;;;;6.60;2.90;;;;;;;6.77;100.00;103128.36;103948;1334;61362;-76
2021/12/17 08:02:12;;;;;;;6.40;2.50;;;;;;;6.78;100.00;103133.40;103972;1329;61703;-76
2021/12/17 08:04:39;;;;;;;8.00;2.80;;;;;;;6.79;100.00;103129.33;103560;1334;73389;-76
2021/12/17 08:07:05;;;;;;;8.60;3.50;;;;;;;6.77;100.00;103132.20;103957;1333;71927;-76
2021/12/17 08:09:33;;;;;;;9.60;3.30;;;;;;;6.78;100.00;103133.23;103937;1329;74459;-76
2021/12/17 08:12:00;;;;;;;9.60;2.90;;;;;;;6.78;100.00;103135.36;103916;1330;62393;-76
2021/12/17 08:14:29;;;;;;;13.70;4.90;;;;;;;6.78;100.00;103137.10;103304;1336;59268;-76
2021/12/17 08:17:53;;;;;;;10.20;3.30;;;;;;;6.78;100.00;103131.48;103327;1333;75515;-76
2021/12/17 08:25:43;;;;;;;6.90;2.60;;;;;;;6.72;100.00;103149.77;103979;1330;62469;-76
2021/12/17 08:28:12;;;;;;;8.20;2.80;;;;;;;6.67;100.00;103146.02;103934;1329;62799;-78
2021/12/17 08:30:40;;;;;;;6.80;3.10;;;;;;;6.64;100.00;103147.06;103428;1336;75239;-76
2021/12/17 08:33:06;;;;;;;7.50;3.20;;;;;;;6.63;100.00;103152.76;103983;1330;71414;-76
2021/12/17 08:35:40;;;;;;;6.80;2.80;;;;;;;6.60;100.00;103153.41;103890;1333;72724;-75
2021/12/17 08:38:09;;;;;;;5.70;2.60;;;;;;;6.60;100.00;103151.33;103248;1336;63619;-76
2021/12/17 08:40:37;;;;;;;7.20;3.70;;;;;;;6.59;100.00;103158.24;103634;1331;61841;-76
2021/12/17 08:43:04;;;;;;;7.20;3.20;;;;;;;6.57;100.00;103162.23;103960;1333;74891;-76
2021/12/17 08:45:32;;;;;;;6.10;3.10;;;;;;;6.56;100.00;103172.34;103965;1330;72495;-75
2021/12/17 08:47:59;;;;;;;7.30;3.50;;;;;;;6.54;100.00;103170.67;103850;1330;73042;-76
2021/12/17 08:50:26;;;;;;;8.00;4.10;;;;;;;6.54;100.00;103174.17;103964;1330;62485;-77
2021/12/17 08:52:53;;;;;;;7.60;3.90;;;;;;;6.52;100.00;103182.55;103917;1330;61822;-73
2021/12/17 08:55:20;;;;;;;8.90;3.80;;;;;;;6.51;100.00;103181.35;103944;1334;75327;-76
2021/12/17 08:57:47;;;;;;;7.80;3.90;;;;;;;6.51;100.00;103181.03;103948;1334;72508;-76
2021/12/17 09:00:14;;;;;;;6.20;3.40;;;;;;;6.51;100.00;103170.83;103942;1333;73037;-76
2021/12/17 09:02:41;;;;;;;6.20;2.40;;;;;;;6.52;100.00;103170.95;104002;1331;62282;-73
2021/12/17 09:05:09;;;;;;;4.50;2.40;;;;;;;6.51;100.00;103177.65;103982;1330;60614;-75
2021/12/17 09:07:36;;;;;;;4.70;2.00;;;;;;;6.50;99.57;103184.60;103692;1330;75397;-74
2021/12/17 09:10:06;;;;;;;3.80;1.60;;;;;;;6.49;98.88;103187.63;103913;1333;73460;-74
2021/12/17 09:12:33;;;;;;;2.70;1.30;;;;;;;6.48;98.41;103193.85;103933;1334;73013;-75
2021/12/17 09:14:59;;;;;;;4.40;1.90;;;;;;;6.48;98.44;103200.88;103940;1329;63680;-74
2021/12/17 09:17:26;;;;;;;2.60;1.40;;;;;;;6.47;97.91;103199.52;103766;1334;59550;-74
2021/12/17 09:19:53;;;;;;;2.80;1.30;;;;;;;6.44;97.23;103187.74;103579;1336;74065;-74
2021/12/17 09:22:21;;;;;;;3.20;1.20;;;;;;;6.43;97.74;103189.71;103953;1330;71662;-74
2021/12/17 09:24:48;;;;;;;5.00;2.50;;;;;;;6.43;98.15;103191.46;103950;1330;72920;-74
2021/12/17 09:27:14;;;;;;;5.50;2.60;;;;;;;6.45;98.45;103197.52;103890;1330;62341;-75
2021/12/17 09:29:41;;;;;;;4.30;2.20;;;;;;;6.46;98.41;103201.14;103964;1330;59672;-75
2021/12/17 09:32:07;;;;;;;4.30;1.50;;;;;;;6.46;98.19;103200.29;103840;1333;75259;-75
2021/12/17 09:34:57;;;;;;;3.30;1.60;;;;;;;6.45;98.10;103195.61;103291;1334;71521;-75
2021/12/17 09:37:24;;;;;;;2.90;1.40;;;;;;;6.44;98.00;103205.14;104126;1333;71687;-75
2021/12/17 09:39:51;;;;;;;3.00;1.70;;;;;;;6.44;97.93;103203.94;103927;1333;62731;-75
2021/12/17 09:42:17;;;;;;;2.80;1.00;;;;;;;6.41;97.70;103205.69;103945;1334;60800;-74
2021/12/17 09:44:44;;;;;;;2.00;0.90;;;;;;;6.35;96.56;103207.75;103866;1336;73146;-74
2021/12/17 09:47:14;;;;;;;1.60;1.00;;;;;;;6.36;96.64;103203.67;103946;1333;71551;-74
2021/12/17 09:49:45;;;;;;;3.40;0.90;;;;;;;6.36;96.82;103206.83;103912;1330;73422;-74
2021/12/17 09:52:12;;;;;;;1.80;0.80;;;;;;;6.36;96.93;103211.73;103923;1334;62535;-74
2021/12/17 09:54:43;;;;;;;2.20;1.00;;;;;;;6.36;96.75;103215.94;103568;1330;61792;-74
2021/12/17 09:57:09;;;;;;;3.00;1.10;;;;;;;6.38;96.95;103209.55;103845;1336;74494;-74
2021/12/17 09:59:40;;;;;;;3.30;1.60;;;;;;;6.41;96.99;103208.16;103935;1330;71710;-74
2021/12/17 10:02:07;;;;;;;3.10;1.20;;;;;;;6.44;97.20;103205.85;103583;1331;74132;-74
2021/12/17 10:04:34;;;;;;;2.90;1.00;;;;;;;6.48;97.60;103205.63;103941;1333;62401;-75
2021/12/17 10:07:22;;;;;;;3.20;1.50;;;;;;;6.49;97.24;103214.34;103923;1333;60328;-74
2021/12/17 10:09:51;;;;;;;4.40;1.60;;;;;;;6.52;97.42;103215.23;103856;1334;75392;-74
2021/12/17 10:12:26;;;;;;;6.50;1.80;;;;;;;6.53;97.17;103216.76;103986;1330;73114;-74
2021/12/17 10:15:09;;;;;;;3.10;1.20;;;;;;;6.55;97.19;103214.02;103778;1330;74037;-74
2021/12/17 10:17:58;;;;;;;5.70;2.30;;;;;;;6.53;97.29;103212.73;103737;1330;62343;-75
2021/12/17 10:20:26;;;;;;;3.20;1.40;;;;;;;6.51;97.63;103222.51;103958;1330;60341;-76
2021/12/17 10:22:55;;;;;;;2.50;1.00;;;;;;;6.52;97.82;103232.13;103582;1334;74593;-75
2021/12/17 10:25:22;;;;;;;5.10;2.20;;;;;;;6.51;97.83;103226.00;104022;1330;73270;-75
2021/12/17 10:27:57;;;;;;;2.80;1.30;;;;;;;6.54;97.95;103226.23;103434;1330;72918;-76
2021/12/17 10:30:35;;;;;;;2.90;1.30;;;;;;;6.56;97.96;103225.25;104000;1333;62211;-76
2021/12/17 10:33:14;;;;;;;3.40;1.50;;;;;;;6.52;97.36;103223.86;103645;1331;61778;-76
2021/12/17 10:35:45;;;;;;;4.10;1.90;;;;;;;6.49;97.48;103222.63;103902;1333;74264;-77
2021/12/17 10:38:16;;;;;;;3.10;1.50;;;;;;;6.46;97.50;103221.03;103803;1334;71493;-78
2021/12/17 10:41:04;;;;;;;3.90;1.30;;;;;;;6.43;97.48;103221.89;103694;1336;73708;-76
2021/12/17 10:43:37;;;;;;;3.80;1.80;;;;;;;6.41;97.51;103222.20;103656;1336;62312;-75
2021/12/17 10:46:32;;;;;;;3.40;1.60;;;;;;;6.39;97.77;103223.00;103814;1330;61940;-75
2021/12/17 10:49:23;;;;;;;3.10;1.50;;;;;;;6.38;97.61;103224.48;103141;1340;75130;-76
2021/12/17 10:52:03;;;;;;;4.40;1.80;;;;;;;6.39;97.74;103223.04;103962;1333;71275;-76
2021/12/17 10:54:32;;;;;;;4.70;2.20;;;;;;;6.38;97.63;103227.80;103851;1330;74190;-75
2021/12/17 10:57:00;;;;;;;4.90;2.80;;;;;;;6.38;97.74;103222.70;103952;1327;62330;-78
2021/12/17 10:59:32;;;;;;;3.90;2.10;;;;;;;6.41;98.06;103217.98;103943;1333;61117;-76
2021/12/17 11:02:06;;;;;;;9.40;2.20;;;;;;;6.44;97.77;103221.70;103854;1331;75193;-75
2021/12/17 11:04:35;;;;;;;6.20;2.80;;;;;;;6.44;97.62;103225.90;103861;1330;71512;-75
2021/12/17 11:07:14;;;;;;;3.80;2.20;;;;;;;6.47;97.93;103228.73;103942;1333;70402;-75
2021/12/17 11:09:56;;;;;;;4.20;2.20;;;;;;;6.49;97.54;103228.27;103964;1333;63545;-75
2021/12/17 11:12:29;;;;;;;4.40;2.40;;;;;;;6.48;96.94;103220.38;103929;1336;60710;-75
2021/12/17 11:15:21;;;;;;;2.80;1.70;;;;;;;6.49;97.26;103217.87;103949;1330;75227;-74
2021/12/17 11:17:56;;;;;;;4.60;2.40;;;;;;;6.54;97.42;103219.70;104007;1331;72495;-74
2021/12/17 11:20:24;;;;;;;3.60;1.50;;;;;;;6.58;97.19;103217.39;103349;1334;74217;-74
2021/12/17 11:22:53;;;;;;;4.60;2.10;;;;;;;6.60;97.09;103212.34;103933;1333;62343;-75
2021/12/17 11:25:22;;;;;;;3.50;1.60;;;;;;;6.58;96.91;103209.85;103924;1333;61663;-75
2021/12/17 11:27:51;;;;;;;2.80;1.30;;;;;;;6.59;96.98;103207.12;103980;1332;75426;-75
2021/12/17 11:30:24;;;;;;;3.30;1.30;;;;;;;6.63;97.51;103204.44;103837;1325;71704;-74
2021/12/17 11:32:52;;;;;;;3.70;1.40;;;;;;;6.65;97.30;103203.96;103883;1330;72948;-75
2021/12/17 11:35:26;;;;;;;3.00;1.50;;;;;;;6.69;97.22;103201.96;103896;1330;62011;-76
2021/12/17 11:38:06;;;;;;;3.10;1.30;;;;;;;6.73;97.25;103210.20;103796;1336;60405;-76
2021/12/17 11:40:52;;;;;;;4.10;1.80;;;;;;;6.78;97.12;103207.80;103337;1336;75174;-75
2021/12/17 11:43:28;;;;;;;3.00;1.20;;;;;;;6.84;97.05;103197.45;103587;1333;71493;-76
2021/12/17 11:46:01;;;;;;;2.90;1.40;;;;;;;6.85;97.04;103199.46;103929;1331;72808;-76
2021/12/17 11:48:32;;;;;;;2.90;1.40;;;;;;;6.83;96.96;103199.61;103968;1330;60594;-75
2021/12/17 11:51:17;;;;;;;3.70;1.50;;;;;;;6.81;97.14;103202.72;103954;1334;60762;-76
2021/12/17 11:54:03;;;;;;;;;;;;;;;6.81;97.21;103207.98;103981;1330;74245;-76
2021/12/17 11:56:53;;;;;;;2.90;1.60;;;;;;;6.79;97.35;103211.45;103678;1334;71377;-75
2021/12/17 11:59:26;;;;;;;3.50;1.20;;;;;;;6.81;97.55;103213.63;103399;1332;73066;-76
2021/12/17 12:02:22;;;;;;;3.00;1.60;;;;;;;6.82;97.91;103209.13;104031;1334;61325;-76
2021/12/17 12:05:00;;;;;;;3.90;1.50;;;;;;;6.85;98.03;103202.10;103876;1330;61729;-76
2021/12/17 12:07:32;;;;;;;3.30;1.50;;;;;;;6.88;98.03;103196.47;103885;1330;75236;-76
2021/12/17 12:10:12;;;;;;;4.80;2.00;;;;;;;6.89;98.02;103197.86;103172;1331;71252;-75
2021/12/17 12:12:42;;;;;;;4.20;1.70;;;;;;;6.90;98.28;103203.90;104002;1335;72920;-75
2021/12/17 12:15:17;;;;;;;4.10;1.60;;;;;;;6.91;98.25;103206.69;103233;1330;61038;-75
2021/12/17 12:18:08;;;;;;;3.40;1.60;;;;;;;6.92;98.48;103206.97;103979;1330;60310;-75
2021/12/17 12:20:37;;;;;;;4.30;1.80;;;;;;;6.92;98.56;103204.52;103952;1330;74930;-76
2021/12/17 12:23:21;;;;;;;3.70;1.80;;;;;;;6.91;98.46;103201.07;103546;1329;70605;-76
2021/12/17 12:26:24;;;;;;;6.20;2.60;;;;;;;6.90;98.56;103198.80;103956;1331;71930;-76
2021/12/17 12:28:56;;;;;;;4.30;1.70;;;;;;;6.92;98.62;103196.42;103489;1331;62427;-76
2021/12/17 12:31:22;;;;;;;3.90;1.70;;;;;;;6.94;98.91;103196.65;103527;1334;61712;-76
2021/12/17 12:34:02;;;;;;;5.40;2.20;;;;;;;6.92;98.76;103198.04;103943;1331;58475;-76
2021/12/17 12:37:01;;;;;;;3.70;1.70;;;;;;;6.91;98.61;103193.66;103991;1331;71730;-76
2021/12/17 12:39:33;;;;;;;4.40;1.90;;;;;;;6.92;99.00;103190.79;103448;1333;73552;-76
2021/12/17 12:42:07;;;;;;;4.80;1.80;;;;;;;6.92;98.65;103187.30;103782;1330;62289;-75
2021/12/17 12:44:43;;;;;;;4.50;2.20;;;;;;;6.92;98.76;103183.90;103511;1337;61136;-75
2021/12/17 12:47:14;;;;;;;2.90;1.40;;;;;;;6.93;98.40;103180.36;103941;1331;74257;-79
2021/12/17 12:50:01;;;;;;;4.80;1.80;;;;;;;6.92;98.66;103175.86;103967;1330;71411;-76
2021/12/17 12:52:36;;;;;;;4.30;1.60;;;;;;;6.91;98.93;103173.08;103934;1330;72939;-76
2021/12/17 12:55:24;;;;;;;5.40;2.30;;;;;;;6.89;99.28;103172.98;104024;1333;62357;-76
2021/12/17 12:58:03;;;;;;;4.90;2.20;;;;;;;6.86;98.83;103169.88;103975;1330;59315;-79
2021/12/17 13:00:49;;;;;;;4.60;2.20;;;;;;;6.84;98.58;103177.23;104002;1329;74242;-78
2021/12/17 13:03:56;;;;;;;8.10;2.90;;;;;;;6.82;98.78;103174.86;103969;1330;71912;-77
2021/12/17 13:06:32;;;;;;;5.80;2.20;;;;;;;6.84;98.63;103172.95;103677;1327;72666;-77
2021/12/17 13:08:59;;;;;;;5.00;2.30;;;;;;;6.86;98.01;103171.65;103988;1330;62780;-78
2021/12/17 13:11:26;;;;;;;5.30;2.40;;;;;;;6.87;97.21;103170.34;103803;1333;59365;-78
2021/12/17 13:13:58;;;;;;;4.90;2.60;;;;;;;6.88;97.19;103170.08;104046;1328;75500;-77
2021/12/17 13:16:42;;;;;;;4.90;1.90;;;;;;;6.91;97.25;103171.15;104027;1329;71662;-78
2021/12/17 13:24:30;;;;;;;13.30;2.80;;;;;;;6.94;97.26;103166.39;103358;1331;60661;-78
2021/12/17 13:27:03;;;;;;;4.60;2.10;;;;;;;6.94;97.14;103164.62;103557;1331;75535;-77
2021/12/17 13:29:38;;;;;;;7.20;3.60;;;;;;;6.93;97.38;103166.78;103955;1329;70399;-77
2021/12/17 13:32:09;;;;;;;7.20;2.70;;;;;;;6.92;97.48;103166.31;103328;1334;71937;-77
2021/12/17 13:34:44;;;;;;;6.00;2.40;;;;;;;6.94;97.48;103167.30;103953;1329;62646;-77
2021/12/17 13:37:23;;;;;;;6.20;3.00;;;;;;;6.93;97.48;103168.54;104016;1330;63947;-77
2021/12/17 13:40:23;;;;;;;5.80;2.50;;;;;;;6.90;96.76;103172.98;103837;1330;75518;-77
2021/12/17 13:42:49;;;;;;;4.40;2.50;;;;;;;6.89;95.88;103172.88;103934;1333;71548;-77
2021/12/17 13:45:21;;;;;;;4.90;2.30;;;;;;;6.87;95.83;103167.17;103921;1330;74323;-78
2021/12/17 13:47:50;;;;;;;7.70;2.80;;;;;;;6.88;95.59;103165.52;104023;1329;63307;-78
2021/12/17 13:53:12;;;;;;;5.70;2.70;;;;;;;6.88;95.83;103165.67;104492;1314;135021;-81
2021/12/17 13:55:59;;;;;;;13.00;5.30;;;;;;;6.89;96.27;103158.98;104279;1324;73274;-83
2021/12/17 13:58:28;;;;;;;12.90;3.80;;;;;;;6.90;96.10;103159.61;104326;1327;73117;-83
2021/12/17 14:00:58;;;;;;;7.50;3.10;;;;;;;6.89;96.10;103159.31;103865;1330;60375;-83
2021/12/17 14:03:34;;;;;;;7.80;3.20;;;;;;;6.89;96.44;103161.77;104102;1327;61899;-82
2021/12/17 14:08:38;;;;;;;8.10;3.10;;;;;;;6.90;95.95;103166.77;104407;1314;66655;-81
2021/12/17 14:11:22;;;;;;;10.10;3.20;;;;;;;6.88;95.79;103161.10;103991;1330;74107;-81
2021/12/17 14:14:23;;;;;;;11.70;3.80;;;;;;;6.87;96.03;103152.74;103875;1330;64237;-82
2021/12/17 14:17:01;;;;;;;10.60;3.50;;;;;;;6.87;96.05;103149.03;103915;1328;61661;-83
2021/12/17 14:19:35;;;;;;;9.10;3.80;;;;;;;6.88;96.05;103160.95;104144;1333;73425;-83
2021/12/17 14:22:21;;;;;;;9.30;3.40;;;;;;;6.90;96.13;103162.02;103970;1330;72483;-82
2021/12/17 14:24:47;;;;;;;11.40;4.40;;;;;;;6.93;95.88;103169.42;104069;1326;73040;-83
2021/12/17 14:27:14;;;;;;;8.20;4.20;;;;;;;6.95;95.81;103168.14;104159;1327;61182;-82
2021/12/17 14:29:41;;;;;;;6.00;3.10;;;;;;;6.97;95.71;103163.98;104115;1327;61646;-83
2021/12/17 14:32:15;;;;;;;10.20;3.20;;;;;;;6.98;95.14;103160.58;104076;1315;73783;-83
2021/12/17 14:34:42;;;;;;;9.30;3.80;;;;;;;7.00;94.90;103160.99;104313;1327;71604;-82
2021/12/17 14:37:09;;;;;;;7.40;3.10;;;;;;;7.01;95.08;103161.43;104324;1325;58411;-84
2021/12/17 14:39:38;;;;;;;10.20;4.00;;;;;;;7.01;93.95;103168.31;104014;1327;63546;-83
2021/12/17 14:42:07;;;;;;;8.90;3.40;;;;;;;7.01;93.69;103173.60;104018;1330;60785;-83
2021/12/17 14:44:47;;;;;;;6.70;3.60;;;;;;;7.01;93.91;103184.33;104239;1328;74068;-83
2021/12/17 14:47:25;;;;;;;8.30;3.30;;;;;;;7.01;93.43;103187.66;104024;1327;71419;-83
2021/12/17 15:08:13;;;;;;;10.70;4.60;;;;;;;6.97;93.14;103167.34;104101;1328;59254;-79
2021/12/17 15:10:41;;;;;;;6.90;3.30;;;;;;;6.98;93.48;103163.58;104162;1327;75280;-79
2021/12/17 15:13:08;;;;;;;6.50;3.60;;;;;;;6.97;93.30;103157.46;104197;1327;71613;-79
2021/12/17 15:15:37;;;;;;;9.00;4.10;;;;;;;6.95;93.15;103151.93;103706;1329;74007;-80
2021/12/17 15:18:09;;;;;;;8.70;4.30;;;;;;;6.93;93.17;103150.97;104079;1330;62451;-79
2021/12/17 15:20:39;;;;;;;6.00;3.60;;;;;;;6.93;93.30;103146.26;103603;1326;61968;-79
2021/12/17 15:23:06;;;;;;;9.70;3.80;;;;;;;6.92;93.01;103145.58;104148;1328;74177;-79
2021/12/17 15:25:33;;;;;;;8.90;5.00;;;;;;;6.93;92.93;103144.64;104400;1324;72157;-79
2021/12/17 15:28:27;;;;;;;10.20;4.20;;;;;;;6.93;92.77;103141.13;104426;1325;73981;-79
2021/12/17 15:30:58;;;;;;;6.30;3.80;;;;;;;6.94;92.87;103144.73;104440;1325;62184;-79
2021/12/17 15:33:25;;;;;;;16.80;5.60;;;;;;;6.94;92.88;103141.76;104219;1334;60323;-78
2021/12/17 15:35:55;;;;;;;10.80;4.50;;;;;;;6.94;93.09;103141.27;103943;1326;74272;-79
2021/12/17 15:38:23;;;;;;;9.00;4.50;;;;;;;6.94;93.33;103137.90;104069;1330;71591;-79
2021/12/17 15:40:56;;;;;;;10.50;5.10;;;;;;;6.93;93.55;103147.79;104180;1327;73955;-80
2021/12/17 15:43:33;;;;;;;7.90;4.40;;;;;;;6.93;93.74;103152.04;104112;1331;61213;-80
2021/12/17 15:46:02;;;;;;;10.20;4.90;;;;;;;6.94;93.84;103146.86;104331;1326;61939;-80
2021/12/17 15:48:31;;;;;;;11.80;3.90;;;;;;;6.94;93.55;103141.25;103851;1331;75249;-79
2021/12/17 15:51:02;;;;;;;9.70;5.00;;;;;;;6.94;93.46;103146.31;104410;1327;71503;-79
2021/12/17 15:53:30;;;;;;;9.40;5.00;;;;;;;6.93;93.21;103147.45;104378;1327;71704;-79
2021/12/17 15:55:57;;;;;;;9.50;4.30;;;;;;;6.92;93.16;103148.59;103548;1330;61417;-79
2021/12/17 15:58:24;;;;;;;8.70;4.20;;;;;;;6.91;93.11;103151.61;104382;1327;60827;-79
2021/12/17 16:00:58;;;;;;;8.60;4.90;;;;;;;6.91;93.11;103156.39;104463;1328;75205;-80
2021/12/17 16:03:32;;;;;;;11.30;4.90;;;;;;;6.91;93.37;103163.23;104028;1328;71585;-80
2021/12/17 16:06:01;;;;;;;8.90;4.30;;;;;;;6.89;93.34;103159.84;104237;1327;73969;-79
2021/12/17 16:08:54;;;;;;;8.20;4.30;;;;;;;6.89;93.52;103160.90;104406;1327;63470;-80
2021/12/17 16:22:06;;;;;;;9.70;4.70;;;;;;;6.80;92.71;103174.63;104346;1327;62044;-78
2021/12/17 16:24:33;;;;;;;9.00;5.20;;;;;;;6.77;91.99;103176.75;104418;1327;60741;-79
2021/12/17 16:27:03;;;;;;;12.30;5.80;;;;;;;6.73;91.64;103178.16;103613;1325;73753;-79
2021/12/17 16:29:32;;;;;;;11.10;6.20;;;;;;;6.71;91.63;103174.95;104126;1327;72604;-79
2021/12/17 16:31:58;;;;;;;12.80;7.00;;;;;;;6.69;91.54;103175.05;104569;1312;74154;-79
2021/12/17 16:34:30;;;;;;;11.90;5.70;;;;;;;6.67;91.77;103174.15;104552;1312;60694;-80